Accueil
METAR-TAF:

METAR-TAF

Aéroports :

Pruniers

Romorantin, France

latitude: 47-19N, longitude: 001-41E, altitude: 85 m

Observation

Le bulletin a été fait il y a 12 minutes, à 07:30 UTC
Vent 6 kt de nord/nord-est, variant entre ouest/nord-ouest et est
Température 8°C
Humidité 61%
Pression 1024 hPa
Visibilité 10 km ou plus
pas de nuages en-dessous de 1500 mètres et pas de cumulonimbus.

METAR: LFYR 170730Z AUTO 02006KT 300V100 CAVOK 08/01 Q1024

Heure: 09:42 (07:42 UTC)

Prévision

Le bulletin a été fait il y a 23 heures et 42 minutes, à 08:00 UTC
Prévision valable du 16 à 09 UTC au 17 à 09 UTC
Vent 6 kt de nord/nord-est
Visibilité 10 km ou plus
pas de nuages en-dessous de 1500 mètres et pas de cumulonimbus.
Temporairement
du 16 à 10 UTC au 16 à 19 UTC
Vent 15 kt de nord-est avec des rafales jusqu'à 25 kt

TAF: LFYR 160800Z 1609/1709 03006KT CAVOK TEMPO 1610/1619 05015G25KT

Observations et prévisions météorologiques de plus de 4000 aéroports (messages METAR et TAF).

Les stations disponibles sont représentées par des disques jaunes et rouges sur la carte.

Passer la souris dessus pour voir le nom de la station.

Cliquer dessus pour voir les observations et prévisions météorologiques.

Pour changer de carte: cliquez sur les boutons verts avec une croix noire pour zoomer, sur le bouton vert avec un tiret pour effectuer un zoom arrière, ou sur les flèches vertes pour les cartes adjacentes.


METAR-TAF: